createdAt,value
2018-04-09T00:01:48.619Z,85.61
2018-04-09T00:04:16.945Z,85.66
2018-04-09T00:06:45.289Z,85.61
2018-04-09T00:09:14.423Z,85.60
2018-04-09T00:11:42.781Z,85.63
2018-04-09T00:14:11.093Z,85.72
2018-04-09T00:16:39.437Z,85.75
2018-04-09T00:19:07.755Z,85.85
2018-04-09T00:21:36.106Z,86.02
2018-04-09T00:24:04.405Z,85.99
2018-04-09T00:26:32.743Z,85.91
2018-04-09T00:29:01.058Z,85.58
2018-04-09T00:31:29.399Z,85.44
2018-04-09T00:33:57.724Z,85.30
2018-04-09T00:36:26.071Z,85.07
2018-04-09T00:38:54.395Z,84.87
2018-04-09T00:41:22.734Z,84.71
2018-04-09T00:43:52.195Z,84.72
2018-04-09T00:46:21.323Z,84.64
2018-04-09T00:48:49.654Z,84.68
2018-04-09T00:51:17.977Z,84.79
2018-04-09T00:54:00.219Z,85.08
2018-04-09T00:56:28.531Z,85.60
2018-04-09T00:58:57.655Z,85.90
2018-04-09T01:01:25.968Z,85.91
2018-04-09T01:03:54.331Z,86.08
2018-04-09T01:06:22.644Z,85.99
2018-04-09T01:08:51.762Z,86.06
2018-04-09T01:11:20.128Z,85.99
2018-04-09T01:13:49.230Z,86.11
2018-04-09T01:16:18.338Z,86.14
2018-04-09T01:18:46.674Z,86.27
2018-04-09T01:21:15.027Z,86.23
2018-04-09T01:23:43.346Z,86.25
2018-04-09T01:26:12.478Z,86.48
2018-04-09T01:28:40.805Z,86.59
2018-04-09T01:31:09.154Z,86.53
2018-04-09T01:33:37.512Z,86.55
2018-04-09T01:36:05.838Z,86.60
2018-04-09T01:38:34.190Z,86.70
2018-04-09T01:41:02.516Z,86.79
2018-04-09T01:43:31.646Z,86.81
2018-04-09T01:45:59.954Z,86.74
2018-04-09T01:48:29.098Z,86.76
2018-04-09T01:50:57.414Z,86.80
2018-04-09T01:53:25.749Z,86.78
2018-04-09T01:55:54.081Z,86.99
2018-04-09T01:58:22.396Z,86.85
2018-04-09T02:00:50.738Z,86.94
2018-04-09T02:03:19.088Z,86.98
2018-04-09T02:05:47.388Z,86.97
2018-04-09T02:08:15.741Z,86.97
2018-04-09T02:10:44.062Z,87.06
2018-04-09T02:13:13.178Z,87.09
2018-04-09T02:15:41.482Z,87.05
2018-04-09T02:18:09.846Z,86.97
2018-04-09T02:20:38.144Z,86.97
2018-04-09T02:23:06.501Z,87.02
2018-04-09T02:25:34.813Z,87.00
2018-04-09T02:28:03.172Z,87.01
2018-04-09T02:30:31.539Z,87.11
2018-04-09T02:32:59.892Z,87.14
2018-04-09T02:35:28.972Z,87.16
2018-04-09T02:37:58.088Z,87.05
2018-04-09T02:40:26.415Z,86.97
2018-04-09T02:42:54.783Z,86.82
2018-04-09T02:45:23.110Z,86.71
2018-04-09T02:47:51.487Z,86.69
2018-04-09T02:50:20.610Z,86.73
2018-04-09T02:52:48.978Z,86.70
2018-04-09T02:55:17.309Z,86.66
2018-04-09T02:57:45.663Z,86.60
2018-04-09T03:00:13.982Z,86.49
2018-04-09T03:02:43.073Z,86.35
2018-04-09T03:05:11.454Z,86.37
2018-04-09T03:07:40.186Z,86.30
2018-04-09T03:10:08.522Z,86.38
2018-04-09T03:12:37.646Z,86.35
2018-04-09T03:15:05.957Z,86.43
2018-04-09T03:17:34.663Z,86.49
2018-04-09T03:20:03.070Z,86.58
2018-04-09T03:22:32.144Z,86.71
2018-04-09T03:25:00.860Z,86.63
2018-04-09T03:27:29.201Z,86.73
2018-04-09T03:29:57.513Z,86.81
2018-04-09T03:32:26.274Z,86.88
2018-04-09T03:34:54.655Z,86.92
2018-04-09T03:37:23.777Z,87.08
2018-04-09T03:39:52.151Z,87.23
2018-04-09T03:42:21.596Z,87.17
2018-04-09T03:44:49.932Z,87.25
2018-04-09T03:47:18.286Z,87.22
2018-04-09T03:49:46.612Z,87.42
2018-04-09T03:52:14.969Z,87.41
2018-04-09T03:54:43.309Z,87.24
2018-04-09T03:57:11.674Z,87.35
2018-04-09T03:59:40.405Z,87.37
2018-04-09T04:02:08.750Z,87.46
2018-04-09T04:04:37.063Z,87.45
2018-04-09T04:07:05.421Z,87.50
2018-04-09T04:09:34.565Z,87.52
2018-04-09T04:12:02.954Z,87.16
2018-04-09T04:14:31.329Z,87.08
2018-04-09T04:17:17.452Z,87.12
2018-04-09T04:20:03.425Z,87.03
2018-04-09T04:22:32.568Z,87.14
2018-04-09T04:25:00.911Z,87.20
2018-04-09T04:27:29.328Z,87.20
2018-04-09T04:29:57.638Z,87.22
2018-04-09T04:32:25.985Z,87.08
2018-04-09T04:34:54.777Z,87.15
2018-04-09T04:37:23.131Z,86.83
2018-04-09T04:39:52.245Z,86.75
2018-04-09T04:42:21.546Z,86.52
2018-04-09T04:44:49.944Z,86.60
2018-04-09T04:47:18.260Z,86.58
2018-04-09T04:49:46.578Z,86.34
2018-04-09T04:52:14.931Z,86.38
2018-04-09T04:54:44.070Z,86.31
2018-04-09T04:57:12.448Z,86.17
2018-04-09T04:59:40.787Z,85.99
2018-04-09T05:02:09.569Z,85.78
2018-04-09T05:04:37.881Z,85.63
2018-04-09T05:07:06.638Z,85.23
2018-04-09T05:09:36.116Z,85.12
2018-04-09T05:12:06.004Z,84.89
2018-04-09T05:14:35.100Z,84.59
2018-04-09T05:17:03.489Z,84.15
2018-04-09T05:19:32.208Z,84.02
2018-04-09T05:22:00.568Z,83.72
2018-04-09T05:24:28.895Z,83.47
2018-04-09T05:26:57.248Z,83.09
2018-04-09T05:29:26.332Z,82.79
2018-04-09T05:31:54.668Z,82.52
2018-04-09T05:34:23.076Z,82.23
2018-04-09T05:36:51.792Z,82.08
2018-04-09T05:39:20.866Z,81.75
2018-04-09T05:41:49.248Z,81.48
2018-04-09T05:44:17.555Z,81.27
2018-04-09T05:46:47.033Z,80.87
2018-04-09T05:49:16.507Z,80.67
2018-04-09T05:51:44.884Z,80.45
2018-04-09T05:54:13.236Z,80.12
2018-04-09T05:56:41.594Z,79.77
2018-04-09T05:59:09.940Z,79.49
2018-04-09T06:01:38.259Z,79.05
2018-04-09T06:04:07.384Z,78.58
2018-04-09T06:06:35.722Z,78.01
2018-04-09T06:09:04.038Z,77.43
2018-04-09T06:11:32.398Z,76.94
2018-04-09T06:14:01.589Z,76.49
2018-04-09T06:16:29.957Z,76.40
2018-04-09T06:18:58.284Z,76.23
2018-04-09T06:21:27.420Z,75.67
2018-04-09T06:23:55.780Z,74.37
2018-04-09T06:26:24.102Z,73.58
2018-04-09T06:28:53.244Z,72.84
2018-04-09T06:31:21.612Z,72.25
2018-04-09T06:33:49.963Z,72.00
2018-04-09T06:36:18.332Z,72.57
2018-04-09T06:38:46.709Z,72.37
2018-04-09T06:41:15.018Z,72.19
2018-04-09T06:43:43.419Z,71.31
2018-04-09T06:46:12.511Z,70.62
2018-04-09T06:48:40.831Z,70.41
2018-04-09T06:51:09.211Z,70.72
2018-04-09T06:53:37.533Z,70.10
2018-04-09T06:56:05.895Z,69.49
2018-04-09T06:58:34.234Z,69.78
2018-04-09T07:01:02.555Z,69.38
2018-04-09T07:03:30.896Z,68.72
2018-04-09T07:05:59.237Z,68.24
2018-04-09T07:08:29.111Z,68.21
2018-04-09T07:10:57.432Z,68.03
2018-04-09T07:13:26.571Z,67.58
2018-04-09T07:15:54.924Z,67.35
2018-04-09T07:18:23.338Z,67.17
2018-04-09T07:20:51.787Z,67.14
2018-04-09T07:23:20.151Z,67.20
2018-04-09T07:25:48.503Z,67.02
2018-04-09T07:28:18.383Z,66.31
2018-04-09T07:30:46.732Z,64.82
2018-04-09T07:33:15.103Z,64.90
2018-04-09T07:35:43.495Z,64.56
2018-04-09T07:38:12.231Z,63.96
2018-04-09T07:40:40.553Z,63.03
2018-04-09T07:43:08.914Z,63.26
2018-04-09T07:45:38.059Z,62.74
2018-04-09T07:48:06.391Z,62.50
2018-04-09T07:50:34.754Z,61.91
2018-04-09T07:53:04.599Z,62.28
2018-04-09T07:55:33.796Z,61.92
2018-04-09T07:58:02.132Z,61.91
2018-04-09T08:00:31.272Z,60.33
2018-04-09T08:02:59.651Z,60.41
2018-04-09T08:05:27.979Z,60.58
2018-04-09T08:07:56.338Z,59.94
2018-04-09T08:10:24.711Z,59.87
2018-04-09T08:12:53.031Z,59.46
2018-04-09T08:15:22.126Z,58.97
2018-04-09T08:17:51.282Z,59.38
2018-04-09T08:20:19.644Z,59.35
2018-04-09T08:22:48.021Z,58.76
2018-04-09T08:25:16.333Z,58.81
2018-04-09T08:27:44.680Z,58.11
2018-04-09T08:30:13.043Z,57.48
2018-04-09T08:32:41.359Z,57.42
2018-04-09T08:35:09.726Z,57.51
2018-04-09T08:37:38.099Z,56.75
2018-04-09T08:40:06.407Z,56.90
2018-04-09T08:42:35.530Z,56.01
2018-04-09T08:45:03.874Z,55.95
2018-04-09T08:47:32.227Z,55.93
2018-04-09T08:50:00.950Z,56.07
2018-04-09T08:52:30.828Z,55.03
2018-04-09T08:54:59.165Z,54.92
2018-04-09T08:57:27.512Z,54.23
2018-04-09T08:59:55.858Z,53.89
2018-04-09T09:02:24.282Z,53.74
2018-04-09T09:04:53.374Z,53.98
2018-04-09T09:07:22.494Z,53.79
2018-04-09T09:09:50.851Z,53.50
2018-04-09T09:12:19.937Z,53.28
2018-04-09T09:14:49.811Z,53.07
2018-04-09T09:17:18.137Z,52.59
2018-04-09T09:19:47.287Z,52.13
2018-04-09T09:22:15.607Z,52.12
2018-04-09T09:24:44.018Z,51.71
2018-04-09T09:27:12.338Z,52.12
2018-04-09T09:29:41.586Z,52.03
2018-04-09T09:32:09.908Z,51.09
2018-04-09T09:34:38.267Z,49.61
2018-04-09T09:37:06.632Z,49.39
2018-04-09T09:39:34.953Z,48.00
2018-04-09T09:42:03.298Z,46.53
2018-04-09T09:44:31.636Z,47.78
2018-04-09T09:46:59.982Z,48.06
2018-04-09T09:49:28.355Z,47.67
2018-04-09T09:51:56.709Z,47.68
2018-04-09T09:54:25.118Z,46.40
2018-04-09T09:56:53.485Z,45.92
2018-04-09T09:59:21.836Z,47.39
2018-04-09T10:01:50.189Z,48.08
2018-04-09T10:04:18.536Z,47.21
2018-04-09T10:06:47.621Z,45.27
2018-04-09T10:09:15.964Z,44.32
2018-04-09T10:11:44.313Z,44.50
2018-04-09T10:14:12.689Z,42.89
2018-04-09T10:16:41.021Z,44.00
2018-04-09T10:19:09.393Z,44.32
2018-04-09T10:21:37.725Z,44.82
2018-04-09T10:24:06.086Z,45.09
2018-04-09T10:26:35.608Z,45.27
2018-04-09T10:29:03.948Z,44.66
2018-04-09T10:31:32.300Z,44.40
2018-04-09T10:34:00.616Z,44.44
2018-04-09T10:36:29.755Z,44.50
2018-04-09T10:38:58.118Z,44.77
2018-04-09T10:41:26.454Z,43.72
2018-04-09T10:43:55.637Z,43.55
2018-04-09T10:46:24.376Z,44.31
2018-04-09T10:48:52.768Z,44.31
2018-04-09T10:51:21.163Z,44.41
2018-04-09T10:53:49.526Z,44.39
2018-04-09T10:56:18.658Z,44.04
2018-04-09T10:58:47.034Z,43.55
2018-04-09T11:01:15.374Z,43.59
2018-04-09T11:03:43.758Z,43.83
2018-04-09T11:06:12.099Z,43.48
2018-04-09T11:08:40.474Z,43.35
2018-04-09T11:11:08.796Z,43.71
2018-04-09T11:13:37.173Z,43.66
2018-04-09T11:16:05.536Z,42.97
2018-04-09T11:18:33.852Z,42.58
2018-04-09T11:21:02.198Z,42.18
2018-04-09T11:23:30.517Z,42.20
2018-04-09T11:25:58.873Z,41.39
2018-04-09T11:28:27.200Z,40.68
2018-04-09T11:30:55.533Z,40.69
2018-04-09T11:33:23.889Z,40.85
2018-04-09T11:35:52.229Z,40.82
2018-04-09T11:38:21.365Z,40.95
2018-04-09T11:40:49.717Z,40.92
2018-04-09T11:43:18.094Z,41.23
2018-04-09T11:45:46.415Z,39.78
2018-04-09T11:48:14.737Z,39.88
2018-04-09T11:50:43.869Z,38.32
2018-04-09T11:53:12.207Z,37.92
2018-04-09T11:55:40.921Z,38.72
2018-04-09T11:58:09.271Z,39.12
2018-04-09T12:00:38.353Z,39.27
2018-04-09T12:03:07.101Z,39.31
2018-04-09T12:05:35.463Z,38.76
2018-04-09T12:08:03.764Z,38.45
2018-04-09T12:10:32.116Z,38.84
2018-04-09T12:13:00.420Z,38.26
2018-04-09T12:15:28.798Z,39.34
2018-04-09T12:17:57.110Z,39.62
2018-04-09T12:20:25.451Z,38.27
2018-04-09T12:22:53.765Z,38.75
2018-04-09T12:25:22.540Z,38.46
2018-04-09T12:27:51.687Z,39.08
2018-04-09T12:30:20.062Z,38.74
2018-04-09T12:32:48.395Z,38.75
2018-04-09T12:35:16.769Z,38.88
2018-04-09T12:37:45.119Z,38.52
2018-04-09T12:40:13.486Z,37.67
2018-04-09T12:42:41.837Z,37.74
2018-04-09T12:45:10.199Z,38.07
2018-04-09T12:47:39.286Z,37.83
2018-04-09T12:50:07.589Z,36.86
2018-04-09T12:52:35.935Z,35.86
2018-04-09T12:55:04.317Z,36.18
2018-04-09T12:57:33.406Z,36.96
2018-04-09T13:00:01.735Z,36.28
2018-04-09T13:02:30.082Z,36.57
2018-04-09T13:04:58.401Z,35.28
2018-04-09T13:07:26.713Z,34.18
2018-04-09T13:09:55.090Z,34.51
2018-04-09T13:12:23.467Z,34.89
2018-04-09T13:14:51.787Z,33.06
2018-04-09T13:17:20.152Z,32.68
2018-04-09T13:19:48.469Z,32.47
2018-04-09T13:22:16.791Z,32.75
2018-04-09T13:24:45.931Z,32.02
2018-04-09T13:27:14.251Z,32.28
2018-04-09T13:29:42.611Z,32.42
2018-04-09T13:32:10.959Z,32.91
2018-04-09T13:34:39.298Z,33.75
2018-04-09T13:37:07.613Z,32.12
2018-04-09T13:39:35.958Z,33.02
2018-04-09T13:42:05.425Z,33.19
2018-04-09T13:44:33.749Z,33.51
2018-04-09T13:47:02.093Z,31.56
2018-04-09T13:49:31.196Z,31.53
2018-04-09T13:51:59.960Z,32.28
2018-04-09T13:54:28.257Z,31.14
2018-04-09T13:56:57.365Z,30.90
2018-04-09T13:59:26.499Z,31.32
2018-04-09T14:01:54.940Z,31.55
2018-04-09T14:04:25.770Z,32.22
2018-04-09T14:06:54.870Z,32.28
2018-04-09T14:09:23.287Z,31.43
2018-04-09T14:11:51.602Z,31.42
2018-04-09T14:14:19.947Z,31.41
2018-04-09T14:16:48.264Z,31.87
2018-04-09T14:19:16.620Z,32.14
2018-04-09T14:21:45.037Z,31.99
2018-04-09T14:24:15.105Z,31.58
2018-04-09T14:26:43.472Z,30.73
2018-04-09T14:29:11.865Z,30.50
2018-04-09T14:31:40.251Z,31.20
2018-04-09T14:34:09.357Z,30.72
2018-04-09T14:36:37.965Z,30.03
2018-04-09T14:39:08.519Z,30.12
2018-04-09T14:41:36.867Z,29.52
2018-04-09T14:44:06.031Z,29.58
2018-04-09T14:46:34.402Z,30.63
2018-04-09T14:49:02.773Z,30.58
2018-04-09T14:51:31.263Z,30.25
2018-04-09T14:53:59.617Z,29.34
2018-04-09T14:56:27.945Z,29.36
2018-04-09T14:58:56.382Z,28.75
2018-04-09T15:01:25.540Z,29.00
2018-04-09T15:03:53.917Z,28.81
2018-04-09T15:06:23.056Z,29.33
2018-04-09T15:08:51.389Z,29.02
2018-04-09T15:11:20.515Z,29.04
2018-04-09T15:13:48.838Z,29.07
2018-04-09T15:16:18.824Z,28.72
2018-04-09T15:18:47.141Z,28.85
2018-04-09T15:21:16.146Z,28.28
2018-04-09T15:23:44.562Z,27.99
2018-04-09T15:26:16.916Z,27.89
2018-04-09T15:28:46.029Z,28.14
2018-04-09T15:31:14.383Z,28.74
2018-04-09T15:33:43.535Z,28.34
2018-04-09T15:36:11.910Z,28.50
2018-04-09T15:38:40.269Z,27.91
2018-04-09T15:41:08.615Z,28.06
2018-04-09T15:43:36.991Z,28.10
2018-04-09T15:46:05.378Z,29.02
2018-04-09T15:48:33.722Z,29.35
2018-04-09T15:51:02.061Z,30.56
2018-04-09T15:53:30.376Z,31.03
2018-04-09T15:55:58.758Z,31.20
2018-04-09T15:58:27.098Z,31.76
2018-04-09T16:00:55.425Z,32.30
2018-04-09T16:03:23.855Z,32.91
2018-04-09T16:05:52.942Z,33.37
2018-04-09T16:08:21.258Z,33.67
2018-04-09T16:10:49.637Z,33.79
2018-04-09T16:13:18.736Z,34.00
2018-04-09T16:15:47.107Z,34.24
2018-04-09T16:18:15.467Z,34.08
2018-04-09T16:20:43.812Z,34.25
2018-04-09T16:23:12.139Z,34.08
2018-04-09T16:25:40.497Z,34.08
2018-04-09T16:28:08.829Z,34.00
2018-04-09T16:30:37.163Z,34.32
2018-04-09T16:33:05.512Z,34.05
2018-04-09T16:35:34.640Z,34.07
2018-04-09T16:38:02.969Z,33.99
2018-04-09T16:40:31.336Z,34.10
2018-04-09T16:42:59.661Z,34.31
2018-04-09T16:45:30.937Z,34.44
2018-04-09T16:48:00.116Z,34.71
2018-04-09T16:50:28.497Z,34.90
2018-04-09T16:52:56.810Z,35.13
2018-04-09T16:55:25.170Z,35.24
2018-04-09T16:57:54.304Z,35.21
2018-04-09T17:00:22.634Z,35.33
2018-04-09T17:02:50.978Z,35.73
2018-04-09T17:05:19.315Z,35.83
2018-04-09T17:07:47.693Z,35.91
2018-04-09T17:10:16.069Z,36.23
2018-04-09T17:12:44.402Z,36.27
2018-04-09T17:15:12.784Z,36.56
2018-04-09T17:17:41.168Z,36.96
2018-04-09T17:20:10.254Z,37.04
2018-04-09T17:22:38.607Z,37.14
2018-04-09T17:25:07.008Z,37.77
2018-04-09T17:27:35.385Z,37.91
2018-04-09T17:30:03.704Z,37.93
2018-04-09T17:32:32.069Z,38.12
2018-04-09T17:35:01.162Z,38.37
2018-04-09T17:37:30.655Z,38.93
2018-04-09T17:39:59.030Z,39.10
2018-04-09T17:42:27.391Z,39.38
2018-04-09T17:44:55.737Z,39.15
2018-04-09T17:47:24.046Z,39.63
2018-04-09T17:49:52.392Z,39.70
2018-04-09T17:52:20.720Z,39.68
2018-04-09T17:54:49.084Z,39.93
2018-04-09T17:57:17.419Z,40.47
2018-04-09T17:59:45.804Z,40.73
2018-04-09T18:02:14.142Z,41.41
2018-04-09T18:04:42.896Z,41.46
2018-04-09T18:07:11.208Z,41.83
2018-04-09T18:09:40.404Z,42.36
2018-04-09T18:12:09.508Z,42.10
2018-04-09T18:14:38.627Z,42.74
2018-04-09T18:17:06.987Z,42.94
2018-04-09T18:19:36.105Z,43.22
2018-04-09T18:22:05.194Z,43.44
2018-04-09T18:24:33.914Z,44.02
2018-04-09T18:27:03.030Z,44.11
2018-04-09T18:29:32.048Z,44.29
2018-04-09T18:32:01.247Z,43.95
2018-04-09T18:34:31.335Z,43.48
2018-04-09T18:36:59.694Z,44.05
2018-04-09T18:39:28.036Z,44.03
2018-04-09T18:41:56.464Z,43.97
2018-04-09T18:44:24.837Z,43.74
2018-04-09T18:46:53.187Z,43.47
2018-04-09T18:49:21.558Z,43.92
2018-04-09T18:51:49.892Z,44.57
2018-04-09T18:54:18.247Z,45.67
2018-04-09T18:56:46.582Z,45.95
2018-04-09T18:59:15.241Z,46.37
2018-04-09T19:01:44.354Z,46.98
2018-04-09T19:04:12.744Z,47.78
2018-04-09T19:06:41.107Z,47.00
2018-04-09T19:09:09.447Z,47.14
2018-04-09T19:11:37.840Z,46.14
2018-04-09T19:14:06.164Z,46.21
2018-04-09T19:16:35.323Z,46.82
2018-04-09T19:19:04.415Z,47.24
2018-04-09T19:21:33.553Z,47.07
2018-04-09T19:24:01.971Z,47.22
2018-04-09T19:26:31.217Z,47.55
2018-04-09T19:28:59.590Z,48.12
2018-04-09T19:31:27.981Z,48.48
2018-04-09T19:33:56.305Z,48.28
2018-04-09T19:36:30.346Z,48.84
2018-04-09T19:39:04.311Z,48.48
2018-04-09T19:41:56.071Z,48.57
2018-04-09T19:44:48.602Z,48.89
2018-04-09T19:47:40.322Z,49.41
2018-04-09T19:59:25.155Z,49.83
2018-04-09T20:01:54.297Z,50.26
2018-04-09T20:04:22.631Z,50.59
2018-04-09T20:06:51.747Z,50.82
2018-04-09T20:09:20.823Z,51.59
2018-04-09T20:11:49.969Z,51.43
2018-04-09T20:14:18.335Z,51.05
2018-04-09T20:16:46.691Z,50.54
2018-04-09T20:19:16.205Z,50.95
2018-04-09T20:21:44.546Z,51.10
2018-04-09T20:24:12.887Z,50.84
2018-04-09T20:26:41.227Z,50.83
2018-04-09T20:29:10.373Z,51.29
2018-04-09T20:31:38.728Z,51.40
2018-04-09T20:34:07.795Z,51.30
2018-04-09T20:36:36.929Z,51.76
2018-04-09T20:39:05.867Z,52.36
2018-04-09T20:41:35.015Z,52.69
2018-04-09T20:44:03.389Z,53.58
2018-04-09T20:46:32.147Z,53.96
2018-04-09T20:49:00.511Z,53.63
2018-04-09T20:51:29.683Z,54.07
2018-04-09T20:53:58.019Z,53.95
2018-04-09T20:56:26.345Z,54.38
2018-04-09T20:59:01.143Z,54.77
2018-04-09T21:01:29.501Z,54.90
2018-04-09T21:03:58.639Z,54.72
2018-04-09T21:06:26.993Z,55.02
2018-04-09T21:08:55.339Z,55.12
2018-04-09T21:11:23.661Z,55.22
2018-04-09T21:13:52.018Z,56.22
2018-04-09T21:16:20.381Z,56.55
2018-04-09T21:18:48.767Z,56.73
2018-04-09T21:21:17.069Z,56.67
2018-04-09T21:23:45.430Z,56.53
2018-04-09T21:26:13.767Z,56.81
2018-04-09T21:28:42.868Z,57.58
2018-04-09T21:31:11.206Z,57.73
2018-04-09T21:33:39.555Z,57.61
2018-04-09T21:36:07.877Z,57.93
2018-04-09T21:38:36.238Z,58.34
2018-04-09T21:41:04.583Z,58.19
2018-04-09T21:43:32.932Z,58.32
2018-04-09T21:46:01.646Z,58.57
2018-04-09T21:48:29.982Z,58.99
2018-04-09T21:50:59.118Z,59.11
2018-04-09T21:53:27.470Z,59.68
2018-04-09T21:55:55.817Z,59.24
2018-04-09T21:58:24.164Z,59.22
2018-04-09T22:00:52.504Z,59.52
2018-04-09T22:03:20.853Z,60.25
2018-04-09T22:05:49.229Z,60.10
2018-04-09T22:08:17.556Z,60.18
2018-04-09T22:10:45.929Z,60.70
2018-04-09T22:13:14.260Z,60.33
2018-04-09T22:15:42.629Z,60.59
2018-04-09T22:18:10.969Z,60.61
2018-04-09T22:20:39.337Z,60.65
2018-04-09T22:23:07.682Z,60.93
2018-04-09T22:25:36.782Z,60.93
2018-04-09T22:28:05.894Z,61.04
2018-04-09T22:30:34.237Z,60.70
2018-04-09T22:33:02.576Z,60.74
2018-04-09T22:35:30.940Z,60.72
2018-04-09T22:37:59.268Z,60.50
2018-04-09T22:40:27.635Z,60.22
2018-04-09T22:42:55.992Z,60.74
2018-04-09T22:45:24.306Z,60.61
2018-04-09T22:47:52.658Z,60.91
2018-04-09T22:50:21.013Z,61.36
2018-04-09T22:52:49.335Z,61.20
2018-04-09T22:55:17.708Z,61.54
2018-04-09T22:57:46.020Z,61.75
2018-04-09T23:00:15.152Z,61.55
2018-04-09T23:02:43.485Z,61.45
2018-04-09T23:05:12.632Z,61.48
2018-04-09T23:07:40.984Z,61.84
2018-04-09T23:10:09.618Z,62.18
2018-04-09T23:12:37.976Z,62.20
2018-04-09T23:15:06.331Z,62.15
2018-04-09T23:17:34.644Z,62.26
2018-04-09T23:20:02.964Z,62.17
2018-04-09T23:22:37.288Z,62.70
2018-04-09T23:25:05.620Z,62.90
2018-04-09T23:27:33.986Z,63.21
2018-04-09T23:30:02.324Z,63.61
2018-04-09T23:32:30.632Z,63.84
2018-04-09T23:34:58.996Z,64.31
2018-04-09T23:37:27.327Z,64.20
2018-04-09T23:39:56.531Z,64.41
2018-04-09T23:42:25.641Z,64.76
2018-04-09T23:44:53.989Z,64.86
2018-04-09T23:47:22.357Z,64.69
2018-04-09T23:49:50.693Z,65.04
2018-04-09T23:52:19.062Z,64.96
2018-04-09T23:54:47.397Z,64.88
2018-04-09T23:57:15.716Z,64.65
2018-04-09T23:59:44.072Z,64.65
